Time;durP1;ratioP1;P1;durP2;ratioP2;P2;SDS_P1;SDS_P2;PMS_P1;PMS_P2;Temp;Humidity;BMP_temperature;BMP_pressure;BME280_temperature;BME280_humidity;BME280_pressure;Samples;Min_cycle;Max_cycle;Signal;HPM_P1;HPM_P2
2022/06/10 00:04:17;;;;;;;3.60;1.80;;;;;;;17.71;53.80;97979.44;10340984;28;20460;-91
2022/06/10 00:09:37;;;;;;;4.97;2.10;;;;;;;17.68;54.24;97978.59;10327131;28;20055;-91
2022/06/10 00:15:04;;;;;;;5.35;2.20;;;;;;;17.64;54.34;97977.69;10326677;28;20054;-90
2022/06/10 00:20:26;;;;;;;4.55;1.95;;;;;;;17.64;54.48;97978.41;10341163;28;20046;-91
2022/06/10 00:25:47;;;;;;;5.95;2.20;;;;;;;17.61;54.76;97973.31;10326599;28;20046;-90
2022/06/10 00:31:08;;;;;;;3.65;2.35;;;;;;;17.58;54.92;97975.34;10326475;28;20050;-91
2022/06/10 00:36:28;;;;;;;5.13;2.45;;;;;;;17.53;54.99;97979.34;10326235;28;20409;-91
2022/06/10 00:41:49;;;;;;;4.70;2.45;;;;;;;17.51;55.27;97984.91;10323906;28;20046;-92
2022/06/10 00:47:20;;;;;;;3.85;2.08;;;;;;;17.43;55.42;97982.44;10296425;28;20046;-91
2022/06/10 00:52:43;;;;;;;6.20;2.08;;;;;;;17.41;55.64;97992.91;10312060;28;20089;-91
2022/06/10 00:58:12;;;;;;;4.47;2.45;;;;;;;17.37;56.20;97996.28;10308249;28;20045;-90
2022/06/10 01:03:33;;;;;;;5.72;2.20;;;;;;;17.39;56.23;97998.47;10308863;28;20551;-89
2022/06/10 01:08:54;;;;;;;4.70;2.20;;;;;;;17.37;56.15;98001.94;10320156;28;20057;-91
2022/06/10 01:15:01;;;;;;;5.70;2.50;;;;;;;17.31;56.32;98004.47;10150347;23;20517;-91
2022/06/10 01:20:38;;;;;;;3.03;2.17;;;;;;;17.21;56.40;98004.03;10178272;29;20067;-90
2022/06/10 01:32:09;;;;;;;4.68;2.13;;;;;;;17.11;56.81;98007.09;10078623;23;20050;-91
2022/06/10 01:37:36;;;;;;;3.85;1.88;;;;;;;17.04;56.91;98016.63;10049764;29;20045;-89
2022/06/10 01:49:24;;;;;;;5.63;1.95;;;;;;;16.98;57.39;98041.72;10078679;23;20085;-90
2022/06/10 01:55:11;;;;;;;3.38;1.80;;;;;;;16.93;57.09;98039.38;10108380;23;20124;-88
2022/06/10 02:00:34;;;;;;;3.97;1.95;;;;;;;16.87;57.31;98051.78;10075984;29;20057;-89
2022/06/10 02:06:39;;;;;;;3.60;2.05;;;;;;;16.83;57.56;98053.69;10055615;23;20512;-89
2022/06/10 02:12:36;;;;;;;4.97;1.63;;;;;;;16.79;57.47;98054.25;10031355;23;20057;-90
2022/06/10 02:18:06;;;;;;;4.22;1.98;;;;;;;16.73;57.83;98053.94;9975421;29;20098;-88
2022/06/10 02:23:29;;;;;;;2.88;2.05;;;;;;;16.67;57.85;98053.63;10002703;29;20046;-89
2022/06/10 02:28:52;;;;;;;5.07;2.08;;;;;;;16.63;58.15;98064.69;10003652;29;20489;-89
2022/06/10 02:34:32;;;;;;;4.15;2.05;;;;;;;16.56;58.54;98065.75;10101778;24;20572;-89
2022/06/10 02:46:21;;;;;;;3.60;2.10;;;;;;;16.46;58.60;98079.34;10283565;23;20469;-87
2022/06/10 02:51:55;;;;;;;4.78;1.77;;;;;;;16.41;58.81;98088.97;10264401;23;20042;-86
2022/06/10 03:21:17;;;;;;;3.03;1.40;;;;;;;16.42;59.28;98141.13;10533941;23;20397;-88
2022/06/10 03:33:02;;;;;;;4.72;1.67;;;;;;;16.47;59.46;98154.78;10466829;23;20108;-84
2022/06/10 03:38:45;;;;;;;3.45;1.90;;;;;;;16.49;59.25;98162.59;10306050;23;20492;-86
2022/06/10 03:44:18;;;;;;;4.22;1.90;;;;;;;16.53;59.38;98160.00;10249268;24;20112;-86
2022/06/10 03:49:43;;;;;;;2.85;1.73;;;;;;;16.62;59.30;98164.69;10047053;29;20073;-88
2022/06/10 03:55:18;;;;;;;3.45;1.70;;;;;;;16.76;59.29;98161.88;10231946;23;20503;-88
2022/06/10 04:00:40;;;;;;;3.45;1.40;;;;;;;16.93;59.27;98177.53;10070576;29;20054;-78
2022/06/10 04:06:29;;;;;;;4.45;1.85;;;;;;;17.26;59.02;98197.47;10071893;29;20522;-77
2022/06/10 04:12:10;;;;;;;2.38;1.45;;;;;;;17.62;58.47;98190.03;10060714;29;20078;-79
2022/06/10 04:17:31;;;;;;;2.72;1.38;;;;;;;17.89;57.98;98194.84;10070694;29;20523;-80
2022/06/10 04:22:52;;;;;;;3.35;1.40;;;;;;;18.13;57.54;98197.31;10072690;29;20097;-79
2022/06/10 04:28:13;;;;;;;3.38;1.55;;;;;;;18.41;57.58;98209.88;10081510;29;20053;-82
2022/06/10 04:33:35;;;;;;;3.75;1.48;;;;;;;18.86;56.67;98209.00;10075891;29;20045;-80
2022/06/10 04:38:56;;;;;;;1.92;1.27;;;;;;;19.40;56.15;98212.66;10088225;29;20049;-79
2022/06/10 04:44:16;;;;;;;3.05;1.25;;;;;;;19.98;54.77;98222.03;10073993;29;20473;-79
2022/06/10 04:49:39;;;;;;;6.60;1.33;;;;;;;20.56;54.27;98231.28;10060801;29;20054;-83
2022/06/10 04:55:00;;;;;;;9.13;1.30;;;;;;;21.14;52.57;98240.38;10073596;29;20072;-76
2022/06/10 05:00:32;;;;;;;2.92;1.30;;;;;;;21.33;51.90;98239.63;10072941;29;20056;-88
2022/06/10 05:05:53;;;;;;;3.35;1.13;;;;;;;21.42;51.00;98246.28;10075004;29;20488;-89
2022/06/10 05:11:14;;;;;;;3.55;1.17;;;;;;;21.75;51.03;98255.88;10073241;29;20052;-89
